sensor_id;sensor_type;location;lat;lon;timestamp;temperature;humidity
14577;DHT22;7375;46.072;14.470;2022-08-03T00:02:17;25.20;63.90
14577;DHT22;7375;46.072;14.470;2022-08-03T00:04:49;25.20;63.90
14577;DHT22;7375;46.072;14.470;2022-08-03T00:07:16;25.20;63.90
14577;DHT22;7375;46.072;14.470;2022-08-03T00:09:43;25.20;63.90
14577;DHT22;7375;46.072;14.470;2022-08-03T00:12:14;25.20;63.90
14577;DHT22;7375;46.072;14.470;2022-08-03T00:14:41;25.20;64.00
14577;DHT22;7375;46.072;14.470;2022-08-03T00:17:08;25.20;64.00
14577;DHT22;7375;46.072;14.470;2022-08-03T00:19:38;25.20;64.00
14577;DHT22;7375;46.072;14.470;2022-08-03T00:22:06;25.20;64.10
14577;DHT22;7375;46.072;14.470;2022-08-03T00:24:35;25.10;64.00
14577;DHT22;7375;46.072;14.470;2022-08-03T00:27:08;25.10;64.10
14577;DHT22;7375;46.072;14.470;2022-08-03T00:29:38;25.10;64.10
14577;DHT22;7375;46.072;14.470;2022-08-03T00:32:05;25.10;64.10
14577;DHT22;7375;46.072;14.470;2022-08-03T00:34:33;25.20;64.10
14577;DHT22;7375;46.072;14.470;2022-08-03T00:37:00;25.10;64.10
14577;DHT22;7375;46.072;14.470;2022-08-03T00:39:31;25.10;64.10
14577;DHT22;7375;46.072;14.470;2022-08-03T00:42:00;25.10;64.10
14577;DHT22;7375;46.072;14.470;2022-08-03T00:44:30;25.10;64.20
14577;DHT22;7375;46.072;14.470;2022-08-03T00:46:59;25.10;64.20
14577;DHT22;7375;46.072;14.470;2022-08-03T00:49:26;25.10;64.20
14577;DHT22;7375;46.072;14.470;2022-08-03T00:51:55;25.10;64.80
14577;DHT22;7375;46.072;14.470;2022-08-03T00:54:24;25.10;64.20
14577;DHT22;7375;46.072;14.470;2022-08-03T00:56:55;25.10;64.20
14577;DHT22;7375;46.072;14.470;2022-08-03T00:59:22;25.10;64.20
14577;DHT22;7375;46.072;14.470;2022-08-03T01:01:52;25.00;64.20
14577;DHT22;7375;46.072;14.470;2022-08-03T01:04:19;25.00;64.20
14577;DHT22;7375;46.072;14.470;2022-08-03T01:06:49;25.00;64.30
14577;DHT22;7375;46.072;14.470;2022-08-03T01:09:19;25.00;64.30
14577;DHT22;7375;46.072;14.470;2022-08-03T01:11:50;25.00;64.30
14577;DHT22;7375;46.072;14.470;2022-08-03T01:14:26;25.00;64.30
14577;DHT22;7375;46.072;14.470;2022-08-03T01:16:57;25.00;64.30
14577;DHT22;7375;46.072;14.470;2022-08-03T01:19:30;25.00;64.30
14577;DHT22;7375;46.072;14.470;2022-08-03T01:22:22;25.00;64.40
14577;DHT22;7375;46.072;14.470;2022-08-03T01:24:55;25.00;64.40
14577;DHT22;7375;46.072;14.470;2022-08-03T01:27:28;25.00;64.40
14577;DHT22;7375;46.072;14.470;2022-08-03T01:30:04;25.00;64.40
14577;DHT22;7375;46.072;14.470;2022-08-03T01:32:38;25.00;64.40
14577;DHT22;7375;46.072;14.470;2022-08-03T01:35:10;25.00;64.50
14577;DHT22;7375;46.072;14.470;2022-08-03T01:37:42;25.00;64.50
14577;DHT22;7375;46.072;14.470;2022-08-03T01:40:11;25.00;64.50
14577;DHT22;7375;46.072;14.470;2022-08-03T01:42:39;25.00;64.50
14577;DHT22;7375;46.072;14.470;2022-08-03T01:45:11;25.00;64.50
14577;DHT22;7375;46.072;14.470;2022-08-03T01:47:39;24.90;64.50
14577;DHT22;7375;46.072;14.470;2022-08-03T01:50:09;25.00;64.60
14577;DHT22;7375;46.072;14.470;2022-08-03T01:52:38;25.00;64.60
14577;DHT22;7375;46.072;14.470;2022-08-03T01:55:06;24.90;64.60
14577;DHT22;7375;46.072;14.470;2022-08-03T01:57:40;24.90;64.50
14577;DHT22;7375;46.072;14.470;2022-08-03T02:00:11;24.90;64.60
14577;DHT22;7375;46.072;14.470;2022-08-03T02:02:47;24.90;64.60
14577;DHT22;7375;46.072;14.470;2022-08-03T02:05:15;24.90;64.60
14577;DHT22;7375;46.072;14.470;2022-08-03T02:07:45;24.90;64.60
14577;DHT22;7375;46.072;14.470;2022-08-03T02:10:14;24.90;64.60
14577;DHT22;7375;46.072;14.470;2022-08-03T02:12:42;24.90;64.60
14577;DHT22;7375;46.072;14.470;2022-08-03T02:15:15;24.90;64.70
14577;DHT22;7375;46.072;14.470;2022-08-03T02:17:43;24.90;64.70
14577;DHT22;7375;46.072;14.470;2022-08-03T02:20:11;24.90;64.70
14577;DHT22;7375;46.072;14.470;2022-08-03T02:22:39;24.90;64.70
14577;DHT22;7375;46.072;14.470;2022-08-03T02:25:10;24.90;64.70
14577;DHT22;7375;46.072;14.470;2022-08-03T02:27:38;24.90;64.70
14577;DHT22;7375;46.072;14.470;2022-08-03T02:30:07;24.80;64.70
14577;DHT22;7375;46.072;14.470;2022-08-03T02:32:37;24.90;64.80
14577;DHT22;7375;46.072;14.470;2022-08-03T02:35:08;24.80;64.70
14577;DHT22;7375;46.072;14.470;2022-08-03T02:37:36;24.90;64.80
14577;DHT22;7375;46.072;14.470;2022-08-03T02:40:05;24.80;64.70
14577;DHT22;7375;46.072;14.470;2022-08-03T02:42:36;24.80;64.80
14577;DHT22;7375;46.072;14.470;2022-08-03T02:45:08;24.80;64.80
14577;DHT22;7375;46.072;14.470;2022-08-03T02:47:42;24.80;64.80
14577;DHT22;7375;46.072;14.470;2022-08-03T02:50:11;24.80;64.80
14577;DHT22;7375;46.072;14.470;2022-08-03T02:52:38;24.80;64.80
14577;DHT22;7375;46.072;14.470;2022-08-03T02:55:07;24.80;64.80
14577;DHT22;7375;46.072;14.470;2022-08-03T02:57:37;24.80;64.80
14577;DHT22;7375;46.072;14.470;2022-08-03T03:00:07;24.80;64.80
14577;DHT22;7375;46.072;14.470;2022-08-03T03:02:35;24.80;64.90
14577;DHT22;7375;46.072;14.470;2022-08-03T03:05:04;24.80;64.80
14577;DHT22;7375;46.072;14.470;2022-08-03T03:07:34;24.80;64.90
14577;DHT22;7375;46.072;14.470;2022-08-03T03:10:05;24.80;64.90
14577;DHT22;7375;46.072;14.470;2022-08-03T03:12:33;24.80;65.00
14577;DHT22;7375;46.072;14.470;2022-08-03T03:15:01;24.80;64.90
14577;DHT22;7375;46.072;14.470;2022-08-03T03:17:34;24.80;64.90
14577;DHT22;7375;46.072;14.470;2022-08-03T03:20:07;24.80;64.90
14577;DHT22;7375;46.072;14.470;2022-08-03T03:22:34;24.80;65.00
14577;DHT22;7375;46.072;14.470;2022-08-03T03:25:06;24.80;65.00
14577;DHT22;7375;46.072;14.470;2022-08-03T03:27:36;24.70;64.90
14577;DHT22;7375;46.072;14.470;2022-08-03T03:30:09;24.70;64.90
14577;DHT22;7375;46.072;14.470;2022-08-03T03:32:36;24.70;65.00
14577;DHT22;7375;46.072;14.470;2022-08-03T03:35:04;24.70;64.90
14577;DHT22;7375;46.072;14.470;2022-08-03T03:37:36;24.70;64.90
14577;DHT22;7375;46.072;14.470;2022-08-03T03:40:04;24.70;65.00
14577;DHT22;7375;46.072;14.470;2022-08-03T03:42:41;24.70;65.00
14577;DHT22;7375;46.072;14.470;2022-08-03T03:45:11;24.70;65.00
14577;DHT22;7375;46.072;14.470;2022-08-03T03:47:38;24.70;65.00
14577;DHT22;7375;46.072;14.470;2022-08-03T03:50:08;24.70;65.00
14577;DHT22;7375;46.072;14.470;2022-08-03T03:52:38;24.70;65.00
14577;DHT22;7375;46.072;14.470;2022-08-03T03:55:06;24.70;65.00
14577;DHT22;7375;46.072;14.470;2022-08-03T03:57:36;24.70;65.00
14577;DHT22;7375;46.072;14.470;2022-08-03T04:00:06;24.70;65.00
14577;DHT22;7375;46.072;14.470;2022-08-03T04:02:37;24.70;65.00
14577;DHT22;7375;46.072;14.470;2022-08-03T04:05:08;24.70;65.00
14577;DHT22;7375;46.072;14.470;2022-08-03T04:07:56;24.70;65.10
14577;DHT22;7375;46.072;14.470;2022-08-03T04:10:41;24.70;65.10
14577;DHT22;7375;46.072;14.470;2022-08-03T04:13:24;24.70;65.00
14577;DHT22;7375;46.072;14.470;2022-08-03T04:15:53;24.70;65.00
14577;DHT22;7375;46.072;14.470;2022-08-03T04:18:24;24.70;65.00
14577;DHT22;7375;46.072;14.470;2022-08-03T04:20:52;24.70;65.10
14577;DHT22;7375;46.072;14.470;2022-08-03T04:23:22;24.70;65.10
14577;DHT22;7375;46.072;14.470;2022-08-03T04:25:53;24.70;65.10
14577;DHT22;7375;46.072;14.470;2022-08-03T04:28:20;24.60;65.00
14577;DHT22;7375;46.072;14.470;2022-08-03T04:30:51;24.60;65.00
14577;DHT22;7375;46.072;14.470;2022-08-03T04:33:24;24.70;65.10
14577;DHT22;7375;46.072;14.470;2022-08-03T04:36:00;24.60;65.00
14577;DHT22;7375;46.072;14.470;2022-08-03T04:38:32;24.60;65.00
14577;DHT22;7375;46.072;14.470;2022-08-03T04:41:04;24.60;65.00
14577;DHT22;7375;46.072;14.470;2022-08-03T04:43:33;24.60;65.00
14577;DHT22;7375;46.072;14.470;2022-08-03T04:46:08;24.70;65.10
14577;DHT22;7375;46.072;14.470;2022-08-03T04:48:35;24.60;65.00
14577;DHT22;7375;46.072;14.470;2022-08-03T04:51:06;24.70;65.00
14577;DHT22;7375;46.072;14.470;2022-08-03T04:53:37;24.70;65.00
14577;DHT22;7375;46.072;14.470;2022-08-03T04:56:04;24.60;64.90
14577;DHT22;7375;46.072;14.470;2022-08-03T04:58:42;24.70;65.00
14577;DHT22;7375;46.072;14.470;2022-08-03T05:01:09;24.60;65.50
14577;DHT22;7375;46.072;14.470;2022-08-03T05:03:36;24.70;65.00
14577;DHT22;7375;46.072;14.470;2022-08-03T05:06:03;24.70;65.00
14577;DHT22;7375;46.072;14.470;2022-08-03T05:08:39;24.70;65.00
14577;DHT22;7375;46.072;14.470;2022-08-03T05:11:10;24.60;64.90
14577;DHT22;7375;46.072;14.470;2022-08-03T05:13:37;24.70;65.00
14577;DHT22;7375;46.072;14.470;2022-08-03T05:16:08;24.70;65.00
14577;DHT22;7375;46.072;14.470;2022-08-03T05:18:35;24.70;65.00
14577;DHT22;7375;46.072;14.470;2022-08-03T05:21:02;24.70;64.90
14577;DHT22;7375;46.072;14.470;2022-08-03T05:23:29;24.70;64.90
14577;DHT22;7375;46.072;14.470;2022-08-03T05:25:59;24.70;64.90
14577;DHT22;7375;46.072;14.470;2022-08-03T05:28:27;24.70;64.80
14577;DHT22;7375;46.072;14.470;2022-08-03T05:30:54;24.70;64.90
14577;DHT22;7375;46.072;14.470;2022-08-03T05:33:22;24.70;64.80
14577;DHT22;7375;46.072;14.470;2022-08-03T05:35:49;24.70;64.80
14577;DHT22;7375;46.072;14.470;2022-08-03T05:38:16;24.70;64.80
14577;DHT22;7375;46.072;14.470;2022-08-03T05:40:43;24.80;64.80
14577;DHT22;7375;46.072;14.470;2022-08-03T05:43:11;24.80;64.80
14577;DHT22;7375;46.072;14.470;2022-08-03T05:45:42;24.80;64.60
14577;DHT22;7375;46.072;14.470;2022-08-03T05:48:09;24.80;64.60
14577;DHT22;7375;46.072;14.470;2022-08-03T05:50:36;24.90;64.60
14577;DHT22;7375;46.072;14.470;2022-08-03T05:53:03;25.00;64.50
14577;DHT22;7375;46.072;14.470;2022-08-03T05:55:33;25.20;64.20
14577;DHT22;7375;46.072;14.470;2022-08-03T05:58:03;25.40;63.50
14577;DHT22;7375;46.072;14.470;2022-08-03T06:00:30;25.50;63.00
14577;DHT22;7375;46.072;14.470;2022-08-03T06:02:59;25.60;62.70
14577;DHT22;7375;46.072;14.470;2022-08-03T06:05:26;25.60;62.50
14577;DHT22;7375;46.072;14.470;2022-08-03T06:08:01;25.70;62.40
14577;DHT22;7375;46.072;14.470;2022-08-03T06:10:33;25.80;62.20
14577;DHT22;7375;46.072;14.470;2022-08-03T06:13:00;25.90;62.20
14577;DHT22;7375;46.072;14.470;2022-08-03T06:15:27;26.10;62.10
14577;DHT22;7375;46.072;14.470;2022-08-03T06:17:55;26.30;61.50
14577;DHT22;7375;46.072;14.470;2022-08-03T06:20:27;26.50;60.90
14577;DHT22;7375;46.072;14.470;2022-08-03T06:22:58;26.60;60.30
14577;DHT22;7375;46.072;14.470;2022-08-03T06:25:24;26.80;59.80
14577;DHT22;7375;46.072;14.470;2022-08-03T06:27:52;26.90;59.40
14577;DHT22;7375;46.072;14.470;2022-08-03T06:30:39;27.00;59.10
14577;DHT22;7375;46.072;14.470;2022-08-03T06:33:07;27.00;58.80
14577;DHT22;7375;46.072;14.470;2022-08-03T06:35:41;27.10;58.60
14577;DHT22;7375;46.072;14.470;2022-08-03T06:38:10;27.20;58.50
14577;DHT22;7375;46.072;14.470;2022-08-03T06:40:40;27.30;58.40
14577;DHT22;7375;46.072;14.470;2022-08-03T06:43:13;27.40;58.10
14577;DHT22;7375;46.072;14.470;2022-08-03T06:45:40;27.50;57.90
14577;DHT22;7375;46.072;14.470;2022-08-03T06:48:11;27.60;57.80
14577;DHT22;7375;46.072;14.470;2022-08-03T06:50:44;27.60;57.50
14577;DHT22;7375;46.072;14.470;2022-08-03T06:53:12;27.80;57.40
14577;DHT22;7375;46.072;14.470;2022-08-03T06:55:42;27.80;57.00
14577;DHT22;7375;46.072;14.470;2022-08-03T06:58:12;27.90;57.40
14577;DHT22;7375;46.072;14.470;2022-08-03T07:00:42;28.00;56.60
14577;DHT22;7375;46.072;14.470;2022-08-03T07:03:09;28.10;56.40
14577;DHT22;7375;46.072;14.470;2022-08-03T07:05:39;28.20;56.20
14577;DHT22;7375;46.072;14.470;2022-08-03T07:08:11;28.20;56.00
14577;DHT22;7375;46.072;14.470;2022-08-03T07:10:42;28.30;55.80
14577;DHT22;7375;46.072;14.470;2022-08-03T07:13:12;28.40;55.70
14577;DHT22;7375;46.072;14.470;2022-08-03T07:15:40;28.40;55.50
14577;DHT22;7375;46.072;14.470;2022-08-03T07:18:07;28.50;55.30
14577;DHT22;7375;46.072;14.470;2022-08-03T07:20:39;28.50;55.20
14577;DHT22;7375;46.072;14.470;2022-08-03T07:23:06;28.60;55.10
14577;DHT22;7375;46.072;14.470;2022-08-03T07:25:34;28.60;55.00
14577;DHT22;7375;46.072;14.470;2022-08-03T07:28:03;28.60;55.00
14577;DHT22;7375;46.072;14.470;2022-08-03T07:30:48;28.70;54.90
14577;DHT22;7375;46.072;14.470;2022-08-03T07:33:18;28.70;54.90
14577;DHT22;7375;46.072;14.470;2022-08-03T07:35:49;28.70;54.70
14577;DHT22;7375;46.072;14.470;2022-08-03T07:38:24;28.80;54.60
14577;DHT22;7375;46.072;14.470;2022-08-03T07:40:50;28.90;54.40
14577;DHT22;7375;46.072;14.470;2022-08-03T07:43:20;29.00;54.20
14577;DHT22;7375;46.072;14.470;2022-08-03T07:45:52;29.00;54.20
14577;DHT22;7375;46.072;14.470;2022-08-03T07:48:19;29.10;54.10
14577;DHT22;7375;46.072;14.470;2022-08-03T07:50:50;29.10;54.00
14577;DHT22;7375;46.072;14.470;2022-08-03T07:53:17;29.00;54.00
14577;DHT22;7375;46.072;14.470;2022-08-03T07:55:44;29.00;54.00
14577;DHT22;7375;46.072;14.470;2022-08-03T07:58:14;29.00;54.10
14577;DHT22;7375;46.072;14.470;2022-08-03T08:00:46;29.00;54.10
14577;DHT22;7375;46.072;14.470;2022-08-03T08:03:13;29.00;54.20
14577;DHT22;7375;46.072;14.470;2022-08-03T08:05:43;28.90;54.20
14577;DHT22;7375;46.072;14.470;2022-08-03T08:08:13;28.90;54.50
14577;DHT22;7375;46.072;14.470;2022-08-03T08:10:41;28.80;54.50
14577;DHT22;7375;46.072;14.470;2022-08-03T08:13:15;28.80;54.70
14577;DHT22;7375;46.072;14.470;2022-08-03T08:15:42;28.70;54.80
14577;DHT22;7375;46.072;14.470;2022-08-03T08:18:13;28.80;54.80
14577;DHT22;7375;46.072;14.470;2022-08-03T08:20:40;28.70;54.90
14577;DHT22;7375;46.072;14.470;2022-08-03T08:23:07;28.70;54.90
14577;DHT22;7375;46.072;14.470;2022-08-03T08:25:34;28.70;54.80
14577;DHT22;7375;46.072;14.470;2022-08-03T08:28:02;28.70;54.90
14577;DHT22;7375;46.072;14.470;2022-08-03T08:30:32;28.60;55.00
14577;DHT22;7375;46.072;14.470;2022-08-03T08:32:59;28.60;55.10
14577;DHT22;7375;46.072;14.470;2022-08-03T08:35:28;28.60;55.10
14577;DHT22;7375;46.072;14.470;2022-08-03T08:37:55;28.60;55.10
14577;DHT22;7375;46.072;14.470;2022-08-03T08:40:22;28.60;55.10
14577;DHT22;7375;46.072;14.470;2022-08-03T08:42:49;28.70;55.00
14577;DHT22;7375;46.072;14.470;2022-08-03T08:45:20;28.60;55.00
14577;DHT22;7375;46.072;14.470;2022-08-03T08:47:52;28.60;55.00
14577;DHT22;7375;46.072;14.470;2022-08-03T08:50:23;28.60;55.10
14577;DHT22;7375;46.072;14.470;2022-08-03T08:52:52;28.60;55.20
14577;DHT22;7375;46.072;14.470;2022-08-03T08:55:22;28.60;55.20
14577;DHT22;7375;46.072;14.470;2022-08-03T08:58:03;28.50;55.10
14577;DHT22;7375;46.072;14.470;2022-08-03T09:00:38;28.50;55.20
14577;DHT22;7375;46.072;14.470;2022-08-03T09:03:05;28.50;55.20
14577;DHT22;7375;46.072;14.470;2022-08-03T09:05:35;28.50;55.10
14577;DHT22;7375;46.072;14.470;2022-08-03T09:08:06;28.60;55.30
14577;DHT22;7375;46.072;14.470;2022-08-03T09:10:33;28.50;55.10
14577;DHT22;7375;46.072;14.470;2022-08-03T09:13:00;28.50;55.20
14577;DHT22;7375;46.072;14.470;2022-08-03T09:15:31;28.50;55.20
14577;DHT22;7375;46.072;14.470;2022-08-03T09:17:59;28.50;55.20
14577;DHT22;7375;46.072;14.470;2022-08-03T09:20:26;28.60;55.20
14577;DHT22;7375;46.072;14.470;2022-08-03T09:22:55;28.60;55.20
14577;DHT22;7375;46.072;14.470;2022-08-03T09:25:30;28.60;55.20
14577;DHT22;7375;46.072;14.470;2022-08-03T09:28:04;28.60;55.90
14577;DHT22;7375;46.072;14.470;2022-08-03T09:30:33;28.60;55.20
14577;DHT22;7375;46.072;14.470;2022-08-03T09:33:00;28.50;55.20
14577;DHT22;7375;46.072;14.470;2022-08-03T09:35:27;28.50;55.20
14577;DHT22;7375;46.072;14.470;2022-08-03T09:38:07;28.60;55.10
14577;DHT22;7375;46.072;14.470;2022-08-03T09:40:36;28.60;55.10
14577;DHT22;7375;46.072;14.470;2022-08-03T09:43:03;28.60;55.10
14577;DHT22;7375;46.072;14.470;2022-08-03T09:45:34;28.60;55.10
14577;DHT22;7375;46.072;14.470;2022-08-03T09:48:21;28.60;55.20
14577;DHT22;7375;46.072;14.470;2022-08-03T09:50:48;28.60;55.20
14577;DHT22;7375;46.072;14.470;2022-08-03T09:53:16;28.60;55.10
14577;DHT22;7375;46.072;14.470;2022-08-03T09:55:52;28.60;55.10
14577;DHT22;7375;46.072;14.470;2022-08-03T09:58:22;28.60;55.20
14577;DHT22;7375;46.072;14.470;2022-08-03T10:00:56;28.50;55.20
14577;DHT22;7375;46.072;14.470;2022-08-03T10:03:24;28.50;55.30
14577;DHT22;7375;46.072;14.470;2022-08-03T10:05:54;28.50;55.30
14577;DHT22;7375;46.072;14.470;2022-08-03T10:08:35;28.50;55.40
14577;DHT22;7375;46.072;14.470;2022-08-03T10:11:04;28.30;55.60
14577;DHT22;7375;46.072;14.470;2022-08-03T10:13:31;28.30;55.90
14577;DHT22;7375;46.072;14.470;2022-08-03T10:15:58;28.30;56.00
14577;DHT22;7375;46.072;14.470;2022-08-03T10:18:26;28.30;55.90
14577;DHT22;7375;46.072;14.470;2022-08-03T10:20:54;28.30;56.00
14577;DHT22;7375;46.072;14.470;2022-08-03T10:23:26;28.30;56.00
14577;DHT22;7375;46.072;14.470;2022-08-03T10:25:56;28.20;56.10
14577;DHT22;7375;46.072;14.470;2022-08-03T10:28:27;28.20;56.20
14577;DHT22;7375;46.072;14.470;2022-08-03T10:30:58;28.20;56.20
14577;DHT22;7375;46.072;14.470;2022-08-03T10:33:31;28.10;56.20
14577;DHT22;7375;46.072;14.470;2022-08-03T10:36:03;28.10;56.30
14577;DHT22;7375;46.072;14.470;2022-08-03T10:38:32;28.10;56.40
14577;DHT22;7375;46.072;14.470;2022-08-03T10:41:01;28.10;56.40
14577;DHT22;7375;46.072;14.470;2022-08-03T10:43:32;28.00;56.50
14577;DHT22;7375;46.072;14.470;2022-08-03T10:45:59;28.00;56.60
14577;DHT22;7375;46.072;14.470;2022-08-03T10:48:27;28.00;56.70
14577;DHT22;7375;46.072;14.470;2022-08-03T10:50:58;28.00;56.70
14577;DHT22;7375;46.072;14.470;2022-08-03T10:53:34;27.90;56.70
14577;DHT22;7375;46.072;14.470;2022-08-03T10:56:04;27.90;56.70
14577;DHT22;7375;46.072;14.470;2022-08-03T10:58:53;27.90;56.80
14577;DHT22;7375;46.072;14.470;2022-08-03T11:04:16;27.80;56.90
14577;DHT22;7375;46.072;14.470;2022-08-03T11:06:44;27.80;57.00
14577;DHT22;7375;46.072;14.470;2022-08-03T11:09:16;27.80;57.00
14577;DHT22;7375;46.072;14.470;2022-08-03T11:11:47;27.80;57.00
14577;DHT22;7375;46.072;14.470;2022-08-03T11:14:20;27.80;57.10
14577;DHT22;7375;46.072;14.470;2022-08-03T11:16:48;27.80;57.10
14577;DHT22;7375;46.072;14.470;2022-08-03T11:19:19;27.80;57.10
14577;DHT22;7375;46.072;14.470;2022-08-03T11:21:56;27.70;57.20
14577;DHT22;7375;46.072;14.470;2022-08-03T11:27:22;27.70;57.30
14577;DHT22;7375;46.072;14.470;2022-08-03T11:29:54;27.70;57.30
14577;DHT22;7375;46.072;14.470;2022-08-03T11:35:11;27.60;57.30
14577;DHT22;7375;46.072;14.470;2022-08-03T11:38:04;27.60;57.40
14577;DHT22;7375;46.072;14.470;2022-08-03T11:40:32;27.60;57.40
14577;DHT22;7375;46.072;14.470;2022-08-03T11:42:59;27.60;57.50
14577;DHT22;7375;46.072;14.470;2022-08-03T11:45:28;27.60;57.50
14577;DHT22;7375;46.072;14.470;2022-08-03T11:47:59;27.60;57.60
14577;DHT22;7375;46.072;14.470;2022-08-03T11:50:34;27.50;57.60
14577;DHT22;7375;46.072;14.470;2022-08-03T11:53:04;27.50;57.60
14577;DHT22;7375;46.072;14.470;2022-08-03T11:55:34;27.50;57.70
14577;DHT22;7375;46.072;14.470;2022-08-03T11:58:01;27.50;57.70
14577;DHT22;7375;46.072;14.470;2022-08-03T12:00:32;27.50;57.80
14577;DHT22;7375;46.072;14.470;2022-08-03T12:03:03;27.50;57.80
14577;DHT22;7375;46.072;14.470;2022-08-03T12:05:40;27.50;57.80
14577;DHT22;7375;46.072;14.470;2022-08-03T12:08:07;27.50;57.90
14577;DHT22;7375;46.072;14.470;2022-08-03T12:10:35;27.50;58.00
14577;DHT22;7375;46.072;14.470;2022-08-03T12:13:05;27.40;57.90
14577;DHT22;7375;46.072;14.470;2022-08-03T12:15:35;27.40;57.90
14577;DHT22;7375;46.072;14.470;2022-08-03T12:18:07;27.40;58.00
14577;DHT22;7375;46.072;14.470;2022-08-03T12:20:40;27.40;58.50
14577;DHT22;7375;46.072;14.470;2022-08-03T12:23:09;27.40;58.00
14577;DHT22;7375;46.072;14.470;2022-08-03T12:25:40;27.40;58.00
14577;DHT22;7375;46.072;14.470;2022-08-03T12:28:11;27.40;58.00
14577;DHT22;7375;46.072;14.470;2022-08-03T12:30:44;27.40;58.10
14577;DHT22;7375;46.072;14.470;2022-08-03T12:33:24;27.40;58.10
14577;DHT22;7375;46.072;14.470;2022-08-03T12:36:05;27.40;58.00
14577;DHT22;7375;46.072;14.470;2022-08-03T12:38:36;27.40;58.10
14577;DHT22;7375;46.072;14.470;2022-08-03T12:41:09;27.40;58.10
14577;DHT22;7375;46.072;14.470;2022-08-03T12:43:51;27.30;58.10
14577;DHT22;7375;46.072;14.470;2022-08-03T12:46:29;27.30;58.20
14577;DHT22;7375;46.072;14.470;2022-08-03T12:49:07;27.30;58.10
14577;DHT22;7375;46.072;14.470;2022-08-03T12:51:54;27.30;58.20
14577;DHT22;7375;46.072;14.470;2022-08-03T12:54:23;27.30;58.10
14577;DHT22;7375;46.072;14.470;2022-08-03T12:56:57;27.30;58.20
14577;DHT22;7375;46.072;14.470;2022-08-03T12:59:30;27.30;58.20
14577;DHT22;7375;46.072;14.470;2022-08-03T13:02:12;27.30;58.20
14577;DHT22;7375;46.072;14.470;2022-08-03T13:04:45;27.30;58.20
14577;DHT22;7375;46.072;14.470;2022-08-03T13:07:16;27.30;58.20
14577;DHT22;7375;46.072;14.470;2022-08-03T13:09:43;27.30;58.30
14577;DHT22;7375;46.072;14.470;2022-08-03T13:12:11;27.30;58.30
14577;DHT22;7375;46.072;14.470;2022-08-03T13:14:39;27.20;58.30
14577;DHT22;7375;46.072;14.470;2022-08-03T13:17:08;27.30;58.30
14577;DHT22;7375;46.072;14.470;2022-08-03T13:19:35;27.20;58.30
14577;DHT22;7375;46.072;14.470;2022-08-03T13:22:12;27.20;58.30
14577;DHT22;7375;46.072;14.470;2022-08-03T13:24:42;27.30;58.40
14577;DHT22;7375;46.072;14.470;2022-08-03T13:27:20;27.20;58.30
14577;DHT22;7375;46.072;14.470;2022-08-03T13:29:47;27.20;58.30
14577;DHT22;7375;46.072;14.470;2022-08-03T13:32:16;27.30;58.40
14577;DHT22;7375;46.072;14.470;2022-08-03T13:34:43;27.20;58.40
14577;DHT22;7375;46.072;14.470;2022-08-03T13:37:13;27.20;58.40
14577;DHT22;7375;46.072;14.470;2022-08-03T13:39:40;27.20;58.40
14577;DHT22;7375;46.072;14.470;2022-08-03T13:42:11;27.20;58.40
14577;DHT22;7375;46.072;14.470;2022-08-03T13:44:38;27.20;58.40
14577;DHT22;7375;46.072;14.470;2022-08-03T13:47:05;27.20;58.40
14577;DHT22;7375;46.072;14.470;2022-08-03T13:49:36;27.20;58.40
14577;DHT22;7375;46.072;14.470;2022-08-03T13:52:03;27.20;58.40
14577;DHT22;7375;46.072;14.470;2022-08-03T13:54:43;27.20;58.40
14577;DHT22;7375;46.072;14.470;2022-08-03T13:57:21;27.20;58.40
14577;DHT22;7375;46.072;14.470;2022-08-03T13:59:51;27.20;58.40
14577;DHT22;7375;46.072;14.470;2022-08-03T14:02:18;27.20;58.40
14577;DHT22;7375;46.072;14.470;2022-08-03T14:04:47;27.20;58.40
14577;DHT22;7375;46.072;14.470;2022-08-03T14:07:17;27.20;58.40
14577;DHT22;7375;46.072;14.470;2022-08-03T14:09:44;27.20;58.40
14577;DHT22;7375;46.072;14.470;2022-08-03T14:12:25;27.20;58.40
14577;DHT22;7375;46.072;14.470;2022-08-03T14:14:52;27.20;58.40
14577;DHT22;7375;46.072;14.470;2022-08-03T14:17:19;27.20;58.40
14577;DHT22;7375;46.072;14.470;2022-08-03T14:19:48;27.20;58.40
14577;DHT22;7375;46.072;14.470;2022-08-03T14:22:15;27.20;58.40
14577;DHT22;7375;46.072;14.470;2022-08-03T14:24:42;27.20;58.40
14577;DHT22;7375;46.072;14.470;2022-08-03T14:27:12;27.20;58.40
14577;DHT22;7375;46.072;14.470;2022-08-03T14:29:39;27.20;58.40
14577;DHT22;7375;46.072;14.470;2022-08-03T14:32:06;27.20;58.40
14577;DHT22;7375;46.072;14.470;2022-08-03T14:34:37;27.20;58.40
14577;DHT22;7375;46.072;14.470;2022-08-03T14:37:06;27.20;58.40
14577;DHT22;7375;46.072;14.470;2022-08-03T14:39:35;27.20;58.40
14577;DHT22;7375;46.072;14.470;2022-08-03T14:42:03;27.20;58.40
14577;DHT22;7375;46.072;14.470;2022-08-03T14:44:32;27.20;58.50
14577;DHT22;7375;46.072;14.470;2022-08-03T14:46:59;27.20;58.50
14577;DHT22;7375;46.072;14.470;2022-08-03T14:49:26;27.20;58.50
14577;DHT22;7375;46.072;14.470;2022-08-03T14:51:56;27.20;58.60
14577;DHT22;7375;46.072;14.470;2022-08-03T14:54:27;27.20;58.50
14577;DHT22;7375;46.072;14.470;2022-08-03T14:56:59;27.20;58.60
14577;DHT22;7375;46.072;14.470;2022-08-03T14:59:29;27.10;58.60
14577;DHT22;7375;46.072;14.470;2022-08-03T15:01:57;27.10;58.50
14577;DHT22;7375;46.072;14.470;2022-08-03T15:04:24;27.10;58.50
14577;DHT22;7375;46.072;14.470;2022-08-03T15:07:06;27.10;58.50
14577;DHT22;7375;46.072;14.470;2022-08-03T15:09:35;27.10;58.60
14577;DHT22;7375;46.072;14.470;2022-08-03T15:12:06;27.10;58.60
14577;DHT22;7375;46.072;14.470;2022-08-03T15:14:34;27.10;58.60
14577;DHT22;7375;46.072;14.470;2022-08-03T15:17:04;27.10;58.60
14577;DHT22;7375;46.072;14.470;2022-08-03T15:19:32;27.10;58.60
14577;DHT22;7375;46.072;14.470;2022-08-03T15:22:01;27.10;58.60
14577;DHT22;7375;46.072;14.470;2022-08-03T15:24:29;27.10;58.60
14577;DHT22;7375;46.072;14.470;2022-08-03T15:26:58;27.10;58.60
14577;DHT22;7375;46.072;14.470;2022-08-03T15:29:27;27.10;58.60
14577;DHT22;7375;46.072;14.470;2022-08-03T15:31:54;27.10;58.60
14577;DHT22;7375;46.072;14.470;2022-08-03T15:34:21;27.10;58.70
14577;DHT22;7375;46.072;14.470;2022-08-03T15:36:48;27.10;58.60
14577;DHT22;7375;46.072;14.470;2022-08-03T15:39:15;27.10;58.70
14577;DHT22;7375;46.072;14.470;2022-08-03T15:41:42;27.10;58.70
14577;DHT22;7375;46.072;14.470;2022-08-03T15:44:14;27.10;58.60
14577;DHT22;7375;46.072;14.470;2022-08-03T15:46:46;27.10;58.60
14577;DHT22;7375;46.072;14.470;2022-08-03T15:49:20;27.10;58.70
14577;DHT22;7375;46.072;14.470;2022-08-03T15:51:56;27.10;58.70
14577;DHT22;7375;46.072;14.470;2022-08-03T15:54:23;27.10;58.60
14577;DHT22;7375;46.072;14.470;2022-08-03T15:56:54;27.10;58.70
14577;DHT22;7375;46.072;14.470;2022-08-03T15:59:32;27.10;58.70